createdAt,value
2019-01-23T00:00:48.030Z,0
2019-01-23T00:01:48.008Z,0
2019-01-23T00:02:47.744Z,0
2019-01-23T00:03:47.494Z,0
2019-01-23T00:04:47.738Z,0
2019-01-23T00:05:47.718Z,0
2019-01-23T00:06:47.693Z,0
2019-01-23T00:07:47.694Z,0
2019-01-23T00:08:47.661Z,0
2019-01-23T00:09:47.649Z,0
2019-01-23T00:10:47.413Z,0
2019-01-23T00:11:47.634Z,0
2019-01-23T00:12:47.612Z,0
2019-01-23T00:13:47.870Z,0
2019-01-23T00:14:47.342Z,0
2019-01-23T00:15:47.834Z,0
2019-01-23T00:16:47.569Z,0
2019-01-23T00:17:47.544Z,0
2019-01-23T00:18:47.351Z,0
2019-01-23T00:19:47.297Z,0
2019-01-23T00:20:47.539Z,0
2019-01-23T00:21:47.265Z,0
2019-01-23T00:22:47.751Z,0
2019-01-23T00:23:47.479Z,0
2019-01-23T00:24:47.485Z,0
2019-01-23T00:25:47.378Z,0
2019-01-23T00:26:47.438Z,0
2019-01-23T00:27:47.692Z,0
2019-01-23T00:28:51.885Z,0
2019-01-23T00:29:47.417Z,0
2019-01-23T00:30:47.401Z,0
2019-01-23T00:31:47.161Z,0
2019-01-23T00:32:47.131Z,0
2019-01-23T00:33:47.625Z,0
2019-01-23T00:34:47.342Z,0
2019-01-23T00:35:47.103Z,0
2019-01-23T00:36:47.593Z,0
2019-01-23T00:37:47.588Z,0
2019-01-23T00:38:47.306Z,0
2019-01-23T00:39:47.556Z,0
2019-01-23T00:40:47.285Z,0
2019-01-23T00:41:47.557Z,0
2019-01-23T00:42:46.765Z,0
2019-01-23T00:43:47.015Z,0
2019-01-23T00:44:47.228Z,0
2019-01-23T00:45:46.737Z,0
2019-01-23T00:46:47.209Z,0
2019-01-23T00:47:46.712Z,0
2019-01-23T00:48:47.191Z,0
2019-01-23T00:49:47.414Z,0
2019-01-23T00:50:47.144Z,0
2019-01-23T00:51:47.128Z,0
2019-01-23T00:52:47.119Z,0
2019-01-23T00:53:46.887Z,0
2019-01-23T00:54:46.857Z,0
2019-01-23T00:55:46.606Z,0
2019-01-23T00:56:46.839Z,0
2019-01-23T00:57:47.058Z,0
2019-01-23T00:58:53.864Z,0
2019-01-23T00:59:46.300Z,0
2019-01-23T01:00:47.031Z,0
2019-01-23T01:01:46.520Z,0
2019-01-23T01:02:47.232Z,0
2019-01-23T01:03:46.993Z,0
2019-01-23T01:04:47.235Z,0
2019-01-23T01:05:46.966Z,0
2019-01-23T01:06:46.697Z,0
2019-01-23T01:07:46.702Z,0
2019-01-23T01:08:46.925Z,0
2019-01-23T01:09:46.688Z,0
2019-01-23T01:10:46.402Z,0
2019-01-23T01:11:46.403Z,0
2019-01-23T01:12:46.628Z,0
2019-01-23T01:13:46.384Z,0
2019-01-23T01:14:46.880Z,0
2019-01-23T01:15:46.354Z,0
2019-01-23T01:16:46.574Z,0
2019-01-23T01:17:46.808Z,0
2019-01-23T01:18:46.297Z,0
2019-01-23T01:19:46.522Z,0
2019-01-23T01:20:46.280Z,0
2019-01-23T01:21:46.015Z,0
2019-01-23T01:22:46.739Z,0
2019-01-23T01:23:46.733Z,0
2019-01-23T01:24:46.737Z,0
2019-01-23T01:25:46.463Z,0
2019-01-23T01:26:46.953Z,0
2019-01-23T01:27:46.187Z,0
2019-01-23T01:28:46.418Z,0
2019-01-23T01:29:46.895Z,0
2019-01-23T01:30:46.912Z,0
2019-01-23T01:31:46.370Z,0
2019-01-23T01:32:46.627Z,0
2019-01-23T01:33:46.610Z,0
2019-01-23T01:34:46.851Z,0
2019-01-23T01:35:46.396Z,0
2019-01-23T01:36:46.311Z,0
2019-01-23T01:37:46.297Z,0
2019-01-23T01:38:46.785Z,0
2019-01-23T01:39:47.332Z,0
2019-01-23T01:40:45.761Z,0
2019-01-23T01:41:46.506Z,0
2019-01-23T01:42:46.510Z,0
2019-01-23T01:43:46.468Z,0
2019-01-23T01:44:46.228Z,0
2019-01-23T01:45:45.988Z,0
2019-01-23T01:46:46.429Z,0
2019-01-23T01:47:46.182Z,0
2019-01-23T01:48:46.193Z,0
2019-01-23T01:49:46.646Z,0
2019-01-23T01:50:46.174Z,0
2019-01-23T01:51:46.385Z,0
2019-01-23T01:52:45.886Z,0
2019-01-23T01:53:46.348Z,0
2019-01-23T01:54:46.329Z,0
2019-01-23T01:55:45.834Z,0
2019-01-23T01:56:46.062Z,0
2019-01-23T01:57:46.061Z,0
2019-01-23T01:58:46.553Z,0
2019-01-23T01:59:47.096Z,0
2019-01-23T02:00:46.004Z,0
2019-01-23T02:01:45.989Z,0
2019-01-23T02:02:45.727Z,0
2019-01-23T02:03:46.232Z,0
2019-01-23T02:04:45.995Z,0
2019-01-23T02:05:46.204Z,0
2019-01-23T02:06:46.176Z,0
2019-01-23T02:07:45.991Z,0
2019-01-23T02:08:46.158Z,0
2019-01-23T02:09:50.380Z,0
2019-01-23T02:10:45.879Z,0
2019-01-23T02:11:46.415Z,0
2019-01-23T02:12:46.103Z,0
2019-01-23T02:13:46.091Z,0
2019-01-23T02:14:46.322Z,0
2019-01-23T02:15:46.055Z,0
2019-01-23T02:16:46.057Z,0
2019-01-23T02:17:46.025Z,0
2019-01-23T02:18:45.531Z,0
2019-01-23T02:19:46.017Z,0
2019-01-23T02:20:45.493Z,0
2019-01-23T02:21:45.494Z,0
2019-01-23T02:22:45.462Z,0
2019-01-23T02:23:46.195Z,0
2019-01-23T02:24:45.679Z,0
2019-01-23T02:25:46.196Z,0
2019-01-23T02:26:46.163Z,0
2019-01-23T02:27:45.900Z,0
2019-01-23T02:28:45.667Z,0
2019-01-23T02:29:46.125Z,0
2019-01-23T02:30:46.135Z,0
2019-01-23T02:31:45.646Z,0
2019-01-23T02:32:45.609Z,0
2019-01-23T02:33:45.578Z,0
2019-01-23T02:34:45.568Z,0
2019-01-23T02:35:45.805Z,0
2019-01-23T02:36:45.803Z,0
2019-01-23T02:37:45.784Z,0
2019-01-23T02:38:45.767Z,0
2019-01-23T02:39:45.496Z,0
2019-01-23T02:40:45.497Z,0
2019-01-23T02:41:45.966Z,0
2019-01-23T02:42:45.708Z,0
2019-01-23T02:43:45.687Z,0
2019-01-23T02:44:45.454Z,0
2019-01-23T02:45:45.408Z,0
2019-01-23T02:46:45.703Z,0
2019-01-23T02:47:45.630Z,0
2019-01-23T02:48:45.397Z,0
2019-01-23T02:49:45.617Z,0
2019-01-23T02:50:45.338Z,0
2019-01-23T02:51:45.377Z,0
2019-01-23T02:52:45.443Z,0
2019-01-23T02:53:45.052Z,0
2019-01-23T02:54:45.033Z,0
2019-01-23T02:55:45.283Z,0
2019-01-23T02:56:45.506Z,0
2019-01-23T02:57:45.251Z,0
2019-01-23T02:58:45.757Z,0
2019-01-23T02:59:45.727Z,0
2019-01-23T03:00:44.729Z,0
2019-01-23T03:01:44.940Z,0
2019-01-23T03:02:44.947Z,0
2019-01-23T03:03:45.440Z,0
2019-01-23T03:04:45.451Z,0
2019-01-23T03:05:45.645Z,0
2019-01-23T03:06:45.627Z,0
2019-01-23T03:07:45.105Z,0
2019-01-23T03:08:45.145Z,0
2019-01-23T03:09:44.877Z,0
2019-01-23T03:10:45.061Z,0
2019-01-23T03:11:45.080Z,0
2019-01-23T03:12:45.552Z,0
2019-01-23T03:13:45.525Z,0
2019-01-23T03:14:45.271Z,0
2019-01-23T03:15:44.996Z,0
2019-01-23T03:16:45.231Z,0
2019-01-23T03:17:44.977Z,0
2019-01-23T03:18:44.966Z,0
2019-01-23T03:19:45.227Z,0
2019-01-23T03:20:44.925Z,0
2019-01-23T03:21:44.914Z,0
2019-01-23T03:22:44.911Z,0
2019-01-23T03:23:44.894Z,0
2019-01-23T03:24:45.141Z,0
2019-01-23T03:25:45.352Z,0
2019-01-23T03:26:44.873Z,0
2019-01-23T03:27:45.071Z,0
2019-01-23T03:28:44.804Z,0
2019-01-23T03:29:45.058Z,0
2019-01-23T03:30:45.330Z,0
2019-01-23T03:31:44.838Z,0
2019-01-23T03:32:44.811Z,0
2019-01-23T03:33:45.013Z,0
2019-01-23T03:34:44.975Z,0
2019-01-23T03:35:44.729Z,0
2019-01-23T03:36:44.974Z,0
2019-01-23T03:37:44.438Z,0
2019-01-23T03:38:44.912Z,0
2019-01-23T03:39:44.906Z,0
2019-01-23T03:40:44.684Z,0
2019-01-23T03:41:44.884Z,0
2019-01-23T03:42:44.863Z,0
2019-01-23T03:43:44.657Z,0
2019-01-23T03:44:44.346Z,0
2019-01-23T03:45:45.064Z,0
2019-01-23T03:46:44.808Z,0
2019-01-23T03:47:44.533Z,0
2019-01-23T03:48:44.644Z,0
2019-01-23T03:49:44.506Z,0
2019-01-23T03:50:44.772Z,0
2019-01-23T03:51:44.733Z,0
2019-01-23T03:52:44.790Z,0
2019-01-23T03:53:44.462Z,0
2019-01-23T03:54:44.694Z,0
2019-01-23T03:55:44.698Z,0
2019-01-23T03:56:44.397Z,0
2019-01-23T03:57:44.924Z,0
2019-01-23T03:58:44.673Z,0
2019-01-23T03:59:44.856Z,0
2019-01-23T04:00:44.629Z,0
2019-01-23T04:01:44.612Z,0
2019-01-23T04:02:44.560Z,0
2019-01-23T04:03:44.294Z,0
2019-01-23T04:04:44.555Z,0
2019-01-23T04:05:44.528Z,0
2019-01-23T04:06:44.548Z,0
2019-01-23T04:07:44.503Z,0
2019-01-23T04:08:44.487Z,0
2019-01-23T04:09:44.733Z,0
2019-01-23T04:10:44.770Z,0
2019-01-23T04:11:44.297Z,0
2019-01-23T04:12:44.221Z,0
2019-01-23T04:13:44.419Z,0
2019-01-23T04:14:44.419Z,0
2019-01-23T04:15:44.371Z,0
2019-01-23T04:16:44.602Z,0
2019-01-23T04:17:44.618Z,0
2019-01-23T04:18:44.330Z,0
2019-01-23T04:19:44.550Z,0
2019-01-23T04:20:44.576Z,0
2019-01-23T04:21:44.047Z,0
2019-01-23T04:22:43.541Z,0
2019-01-23T04:23:44.270Z,0
2019-01-23T04:24:44.241Z,0
2019-01-23T04:25:44.225Z,0
2019-01-23T04:26:44.210Z,0
2019-01-23T04:27:44.205Z,0
2019-01-23T04:28:44.194Z,0
2019-01-23T04:29:49.014Z,0
2019-01-23T04:30:44.385Z,0
2019-01-23T04:31:44.177Z,0
2019-01-23T04:32:44.135Z,0
2019-01-23T04:33:44.107Z,0
2019-01-23T04:34:44.349Z,0
2019-01-23T04:35:44.340Z,0
2019-01-23T04:36:44.337Z,0
2019-01-23T04:37:45.264Z,0
2019-01-23T04:38:44.046Z,0
2019-01-23T04:39:44.012Z,0
2019-01-23T04:40:44.239Z,0
2019-01-23T04:41:43.735Z,0
2019-01-23T04:42:43.955Z,0
2019-01-23T04:43:43.940Z,0
2019-01-23T04:44:43.938Z,0
2019-01-23T04:45:43.695Z,0
2019-01-23T04:46:43.665Z,0
2019-01-23T04:47:43.877Z,0
2019-01-23T04:48:44.146Z,0
2019-01-23T04:49:44.190Z,0
2019-01-23T04:50:43.840Z,0
2019-01-23T04:51:43.833Z,0
2019-01-23T04:52:43.824Z,0
2019-01-23T04:53:43.544Z,0
2019-01-23T04:54:44.044Z,0
2019-01-23T04:55:43.769Z,0
2019-01-23T04:56:43.524Z,0
2019-01-23T04:57:43.979Z,0
2019-01-23T04:58:43.472Z,0
2019-01-23T04:59:49.338Z,0
2019-01-23T05:00:43.953Z,0
2019-01-23T05:01:43.675Z,0
2019-01-23T05:02:43.676Z,0
2019-01-23T05:03:43.700Z,0
2019-01-23T05:04:43.891Z,0
2019-01-23T05:05:43.877Z,0
2019-01-23T05:06:43.385Z,0
2019-01-23T05:07:43.109Z,0
2019-01-23T05:08:43.816Z,0
2019-01-23T05:09:43.846Z,0
2019-01-23T05:10:43.802Z,0
2019-01-23T05:11:43.779Z,0
2019-01-23T05:12:43.755Z,0
2019-01-23T05:13:43.742Z,0
2019-01-23T05:14:43.739Z,0
2019-01-23T05:15:43.484Z,0
2019-01-23T05:16:43.471Z,0
2019-01-23T05:17:42.942Z,0
2019-01-23T05:18:43.405Z,0
2019-01-23T05:19:43.416Z,0
2019-01-23T05:20:43.618Z,0
2019-01-23T05:21:43.390Z,0
2019-01-23T05:22:43.667Z,0
2019-01-23T05:23:43.322Z,0
2019-01-23T05:24:43.322Z,0
2019-01-23T05:25:43.063Z,0
2019-01-23T05:26:43.803Z,0
2019-01-23T05:27:43.544Z,0
2019-01-23T05:28:43.518Z,0
2019-01-23T05:29:43.525Z,0
2019-01-23T05:30:43.489Z,0
2019-01-23T05:31:43.227Z,0
2019-01-23T05:32:43.209Z,0
2019-01-23T05:33:43.199Z,0
2019-01-23T05:34:43.409Z,0
2019-01-23T05:35:43.163Z,0
2019-01-23T05:36:43.392Z,0
2019-01-23T05:37:43.151Z,0
2019-01-23T05:38:43.107Z,0
2019-01-23T05:39:44.819Z,0
2019-01-23T05:40:43.067Z,0
2019-01-23T05:41:43.073Z,0
2019-01-23T05:42:42.816Z,0
2019-01-23T05:43:43.313Z,0
2019-01-23T05:44:43.267Z,0
2019-01-23T05:45:43.033Z,0
2019-01-23T05:46:43.011Z,0
2019-01-23T05:47:43.213Z,0
2019-01-23T05:48:42.715Z,0
2019-01-23T05:49:42.951Z,0
2019-01-23T05:50:42.681Z,0
2019-01-23T05:51:43.193Z,0
2019-01-23T05:52:42.403Z,0
2019-01-23T05:53:43.137Z,0
2019-01-23T05:54:42.879Z,0
2019-01-23T05:55:43.113Z,0
2019-01-23T05:56:43.124Z,0
2019-01-23T05:57:42.825Z,0
2019-01-23T05:58:42.803Z,0
2019-01-23T05:59:42.784Z,0
2019-01-23T06:00:43.037Z,0
2019-01-23T06:01:43.050Z,0
2019-01-23T06:02:42.782Z,0
2019-01-23T06:03:42.299Z,0
2019-01-23T06:04:42.718Z,0
2019-01-23T06:05:42.449Z,0
2019-01-23T06:06:42.947Z,0
2019-01-23T06:07:42.662Z,0
2019-01-23T06:08:42.398Z,0
2019-01-23T06:09:42.892Z,0
2019-01-23T06:10:42.376Z,0
2019-01-23T06:11:42.858Z,0
2019-01-23T06:12:42.583Z,0
2019-01-23T06:13:42.336Z,0
2019-01-23T06:14:42.545Z,0
2019-01-23T06:15:42.792Z,0
2019-01-23T06:16:42.523Z,0
2019-01-23T06:17:42.768Z,0
2019-01-23T06:18:42.747Z,0
2019-01-23T06:19:42.733Z,0
2019-01-23T06:20:42.261Z,0
2019-01-23T06:21:42.486Z,0
2019-01-23T06:22:42.458Z,0
2019-01-23T06:23:42.449Z,0
2019-01-23T06:24:42.407Z,0
2019-01-23T06:25:42.647Z,0
2019-01-23T06:26:42.156Z,0
2019-01-23T06:27:42.608Z,0
2019-01-23T06:28:42.107Z,0
2019-01-23T06:29:42.604Z,0
2019-01-23T06:30:42.570Z,0
2019-01-23T06:31:42.546Z,0
2019-01-23T06:32:42.308Z,0
2019-01-23T06:33:42.348Z,0
2019-01-23T06:34:42.004Z,0
2019-01-23T06:35:42.263Z,0
2019-01-23T06:36:41.727Z,0
2019-01-23T06:37:42.213Z,0
2019-01-23T06:38:41.964Z,0
2019-01-23T06:39:42.196Z,0
2019-01-23T06:40:41.665Z,0
2019-01-23T06:41:42.159Z,0
2019-01-23T06:42:42.147Z,0
2019-01-23T06:43:42.120Z,0
2019-01-23T06:44:42.118Z,0
2019-01-23T06:45:42.087Z,0
2019-01-23T06:46:41.835Z,0
2019-01-23T06:47:42.092Z,0
2019-01-23T06:48:42.084Z,0
2019-01-23T06:49:42.044Z,0
2019-01-23T06:50:41.795Z,0
2019-01-23T06:51:42.262Z,0
2019-01-23T06:52:41.982Z,0
2019-01-23T06:53:42.246Z,0
2019-01-23T06:54:41.949Z,0
2019-01-23T06:55:41.694Z,0
2019-01-23T06:56:41.700Z,0
2019-01-23T06:57:41.643Z,0
2019-01-23T06:58:41.427Z,0
2019-01-23T06:59:41.384Z,0
2019-01-23T07:00:41.859Z,0
2019-01-23T07:01:42.103Z,0
2019-01-23T07:02:41.565Z,0
2019-01-23T07:03:41.569Z,5
2019-01-23T07:04:41.818Z,5
2019-01-23T07:05:41.560Z,5
2019-01-23T07:06:41.521Z,5
2019-01-23T07:07:41.501Z,5
2019-01-23T07:08:41.250Z,5
2019-01-23T07:09:41.998Z,5
2019-01-23T07:10:41.706Z,5
2019-01-23T07:11:41.935Z,10
2019-01-23T07:12:41.461Z,10
2019-01-23T07:13:41.670Z,10
2019-01-23T07:14:41.938Z,10
2019-01-23T07:15:41.143Z,10
2019-01-23T07:16:41.148Z,10
2019-01-23T07:17:41.864Z,15
2019-01-23T07:18:41.333Z,15
2019-01-23T07:19:41.580Z,15
2019-01-23T07:20:41.565Z,15
2019-01-23T07:21:41.071Z,15
2019-01-23T07:22:41.278Z,20
2019-01-23T07:23:41.504Z,20
2019-01-23T07:24:41.745Z,20
2019-01-23T07:25:41.228Z,20
2019-01-23T07:26:41.271Z,20
2019-01-23T07:27:41.695Z,25
2019-01-23T07:28:41.698Z,25
2019-01-23T07:29:41.428Z,25
2019-01-23T07:30:41.159Z,25
2019-01-23T07:31:41.156Z,25
2019-01-23T07:32:41.622Z,30
2019-01-23T07:33:41.117Z,30
2019-01-23T07:34:41.593Z,30
2019-01-23T07:35:41.110Z,30
2019-01-23T07:36:41.081Z,35
2019-01-23T07:37:41.555Z,35
2019-01-23T07:38:41.029Z,35
2019-01-23T07:39:41.015Z,35
2019-01-23T07:40:41.509Z,35
2019-01-23T07:41:41.254Z,40
2019-01-23T07:42:40.970Z,40
2019-01-23T07:43:40.948Z,40
2019-01-23T07:44:40.957Z,45
2019-01-23T07:45:40.718Z,45
2019-01-23T07:46:40.908Z,45
2019-01-23T07:47:40.911Z,50
2019-01-23T07:48:41.169Z,50
2019-01-23T07:49:41.387Z,50
2019-01-23T07:50:41.106Z,50
2019-01-23T07:51:40.595Z,50
2019-01-23T07:52:40.827Z,50
2019-01-23T07:53:41.078Z,50
2019-01-23T07:54:41.055Z,50
2019-01-23T07:55:40.538Z,55
2019-01-23T07:56:41.259Z,55
2019-01-23T07:57:40.749Z,55
2019-01-23T07:58:40.985Z,60
2019-01-23T07:59:40.748Z,60
2019-01-23T08:00:40.822Z,65
2019-01-23T08:01:40.806Z,65
2019-01-23T08:02:40.960Z,70
2019-01-23T08:03:41.143Z,70
2019-01-23T08:04:40.397Z,70
2019-01-23T08:05:40.637Z,70
2019-01-23T08:06:40.883Z,75
2019-01-23T08:07:40.636Z,75
2019-01-23T08:08:40.351Z,75
2019-01-23T08:09:40.831Z,80
2019-01-23T08:10:40.827Z,80
2019-01-23T08:11:41.038Z,80
2019-01-23T08:12:41.104Z,80
2019-01-23T08:13:40.267Z,85
2019-01-23T08:14:41.980Z,85
2019-01-23T08:15:40.734Z,85
2019-01-23T08:16:40.231Z,90
2019-01-23T08:17:42.259Z,90
2019-01-23T08:18:40.441Z,90
2019-01-23T08:19:40.172Z,90
2019-01-23T08:20:40.670Z,95
2019-01-23T08:21:40.928Z,95
2019-01-23T08:22:40.655Z,95
2019-01-23T08:23:40.390Z,100
2019-01-23T08:24:40.377Z,100
2019-01-23T08:25:40.599Z,100
2019-01-23T08:26:40.866Z,100
2019-01-23T08:27:40.622Z,100
2019-01-23T08:28:40.322Z,105
2019-01-23T08:29:40.423Z,105
2019-01-23T08:30:47.909Z,105
2019-01-23T08:31:40.516Z,105
2019-01-23T08:32:40.500Z,110
2019-01-23T08:33:40.484Z,110
2019-01-23T08:34:40.719Z,110
2019-01-23T08:35:40.234Z,110
2019-01-23T08:36:40.448Z,110
2019-01-23T08:37:40.449Z,115
2019-01-23T08:38:40.432Z,115
2019-01-23T08:39:40.664Z,115
2019-01-23T08:40:40.407Z,115
2019-01-23T08:41:40.615Z,115
2019-01-23T08:42:40.373Z,115
2019-01-23T08:43:40.378Z,115
2019-01-23T08:44:39.869Z,115
2019-01-23T08:45:40.108Z,115
2019-01-23T08:46:40.053Z,115
2019-01-23T08:47:40.287Z,120
2019-01-23T08:48:40.281Z,120
2019-01-23T08:49:40.297Z,120
2019-01-23T08:50:40.008Z,120
2019-01-23T08:51:39.787Z,120
2019-01-23T08:52:39.765Z,120
2019-01-23T08:53:39.968Z,125
2019-01-23T08:54:39.698Z,125
2019-01-23T08:55:40.239Z,125
2019-01-23T08:56:39.914Z,125
2019-01-23T08:57:40.166Z,125
2019-01-23T08:58:39.666Z,125
2019-01-23T08:59:40.139Z,125
2019-01-23T09:00:48.120Z,130
2019-01-23T09:01:40.118Z,130
2019-01-23T09:02:40.124Z,130
2019-01-23T09:03:39.853Z,130
2019-01-23T09:04:39.826Z,130
2019-01-23T09:05:39.795Z,130
2019-01-23T09:06:39.817Z,130
2019-01-23T09:07:39.805Z,135
2019-01-23T09:08:46.645Z,135
2019-01-23T09:09:40.293Z,135
2019-01-23T09:10:40.027Z,140
2019-01-23T09:11:40.257Z,140
2019-01-23T09:12:39.747Z,140
2019-01-23T09:13:39.729Z,140
2019-01-23T09:14:40.005Z,140
2019-01-23T09:15:40.203Z,140
2019-01-23T09:16:39.683Z,140
2019-01-23T09:17:39.694Z,140
2019-01-23T09:18:39.394Z,140
2019-01-23T09:19:39.920Z,140
2019-01-23T09:20:39.905Z,140
2019-01-23T09:21:40.132Z,140
2019-01-23T09:22:39.856Z,145
2019-01-23T09:23:40.079Z,145
2019-01-23T09:24:39.558Z,145
2019-01-23T09:25:39.833Z,145
2019-01-23T09:26:39.777Z,145
2019-01-23T09:27:40.134Z,150
2019-01-23T09:28:40.027Z,145
2019-01-23T09:29:39.518Z,150
2019-01-23T09:30:39.490Z,150
2019-01-23T09:31:39.475Z,150
2019-01-23T09:32:39.724Z,150
2019-01-23T09:33:39.455Z,150
2019-01-23T09:34:39.924Z,150
2019-01-23T09:35:39.911Z,155
2019-01-23T09:36:39.150Z,155
2019-01-23T09:37:40.086Z,155
2019-01-23T09:38:39.616Z,155
2019-01-23T09:39:39.653Z,155
2019-01-23T09:40:39.616Z,160
2019-01-23T09:41:39.593Z,160
2019-01-23T09:42:39.328Z,160
2019-01-23T09:43:39.322Z,160
2019-01-23T09:44:39.303Z,160
2019-01-23T09:45:39.071Z,160
2019-01-23T09:46:39.528Z,160
2019-01-23T09:47:39.513Z,160
2019-01-23T09:48:39.496Z,160
2019-01-23T09:49:39.294Z,160
2019-01-23T09:50:39.468Z,160
2019-01-23T09:51:39.214Z,165
2019-01-23T09:52:39.722Z,165
2019-01-23T09:53:39.186Z,165
2019-01-23T09:54:39.702Z,170
2019-01-23T09:55:39.410Z,165
2019-01-23T09:56:38.650Z,170
2019-01-23T09:57:39.383Z,170
2019-01-23T09:58:39.122Z,165
2019-01-23T09:59:39.636Z,165
2019-01-23T10:00:41.264Z,165
2019-01-23T10:01:39.345Z,165
2019-01-23T10:02:39.338Z,165
2019-01-23T10:03:40.501Z,165
2019-01-23T10:04:39.303Z,170
2019-01-23T10:05:39.310Z,170
2019-01-23T10:06:39.041Z,170
2019-01-23T10:07:39.516Z,170
2019-01-23T10:08:38.990Z,175
2019-01-23T10:09:38.988Z,175
2019-01-23T10:10:39.236Z,175
2019-01-23T10:11:38.982Z,175
2019-01-23T10:12:38.969Z,170
2019-01-23T10:13:38.695Z,170
2019-01-23T10:14:38.963Z,175
2019-01-23T10:15:39.175Z,175
2019-01-23T10:16:39.158Z,170
2019-01-23T10:17:39.911Z,170
2019-01-23T10:18:38.669Z,155
2019-01-23T10:19:39.132Z,150
2019-01-23T10:20:39.116Z,165
2019-01-23T10:21:38.869Z,170
2019-01-23T10:22:39.100Z,170
2019-01-23T10:23:39.092Z,175
2019-01-23T10:24:45.089Z,175
2019-01-23T10:25:38.301Z,175
2019-01-23T10:26:38.773Z,180
2019-01-23T10:27:38.772Z,180
2019-01-23T10:28:39.274Z,180
2019-01-23T10:29:38.765Z,180
2019-01-23T10:30:38.738Z,175
2019-01-23T10:31:39.006Z,175
2019-01-23T10:32:38.717Z,170
2019-01-23T10:33:39.189Z,160
2019-01-23T10:34:39.362Z,160
2019-01-23T10:35:38.917Z,150
2019-01-23T10:36:38.662Z,155
2019-01-23T10:37:39.155Z,170
2019-01-23T10:38:39.150Z,170
2019-01-23T10:39:38.888Z,170
2019-01-23T10:40:38.113Z,170
2019-01-23T10:41:38.598Z,170
2019-01-23T10:42:38.622Z,170
2019-01-23T10:43:38.096Z,170
2019-01-23T10:44:38.975Z,175
2019-01-23T10:45:38.801Z,175
2019-01-23T10:46:38.793Z,180
2019-01-23T10:47:38.527Z,180
2019-01-23T10:48:44.712Z,185
2019-01-23T10:49:38.514Z,185
2019-01-23T10:50:38.731Z,185
2019-01-23T10:51:38.491Z,185
2019-01-23T10:52:38.720Z,185
2019-01-23T10:53:38.479Z,185
2019-01-23T10:54:38.688Z,185
2019-01-23T10:55:38.705Z,185
2019-01-23T10:56:38.716Z,190
2019-01-23T10:57:38.943Z,190
2019-01-23T10:58:38.895Z,190
2019-01-23T10:59:39.059Z,195
2019-01-23T11:00:38.874Z,195
2019-01-23T11:01:38.378Z,195
2019-01-23T11:02:38.849Z,195
2019-01-23T11:03:38.359Z,195
2019-01-23T11:04:38.670Z,200
2019-01-23T11:05:38.868Z,210
2019-01-23T11:06:38.745Z,195
2019-01-23T11:07:38.297Z,190
2019-01-23T11:08:38.796Z,190
2019-01-23T11:09:38.692Z,185
2019-01-23T11:10:38.283Z,190
2019-01-23T11:11:38.738Z,190
2019-01-23T11:12:38.230Z,195
2019-01-23T11:13:38.721Z,200
2019-01-23T11:14:38.459Z,205
2019-01-23T11:15:38.721Z,210
2019-01-23T11:16:38.449Z,215
2019-01-23T11:17:38.678Z,215
2019-01-23T11:18:38.180Z,205
2019-01-23T11:19:38.166Z,215
2019-01-23T11:20:38.151Z,210
2019-01-23T11:21:38.156Z,215
2019-01-23T11:22:38.124Z,220
2019-01-23T11:23:38.370Z,225
2019-01-23T11:24:38.371Z,220
2019-01-23T11:25:38.348Z,210
2019-01-23T11:26:38.090Z,200
2019-01-23T11:27:38.319Z,185
2019-01-23T11:28:38.317Z,185
2019-01-23T11:29:38.066Z,180
2019-01-23T11:30:38.604Z,180
2019-01-23T11:31:38.048Z,180
2019-01-23T11:32:38.036Z,180
2019-01-23T11:33:38.522Z,185
2019-01-23T11:34:38.258Z,185
2019-01-23T11:35:38.519Z,190
2019-01-23T11:36:38.492Z,190
2019-01-23T11:37:38.219Z,190
2019-01-23T11:38:38.212Z,190
2019-01-23T11:39:37.974Z,195
2019-01-23T11:40:38.221Z,190
2019-01-23T11:41:37.947Z,190
2019-01-23T11:42:37.925Z,190
2019-01-23T11:43:37.706Z,185
2019-01-23T11:44:38.417Z,180
2019-01-23T11:45:37.940Z,175
2019-01-23T11:46:37.894Z,170
2019-01-23T11:47:37.930Z,170
2019-01-23T11:48:38.376Z,165
2019-01-23T11:49:38.112Z,160
2019-01-23T11:50:38.106Z,155
2019-01-23T11:51:38.697Z,155
2019-01-23T11:52:37.584Z,155
2019-01-23T11:53:37.832Z,155
2019-01-23T11:54:37.586Z,155
2019-01-23T11:55:37.835Z,160
2019-01-23T11:56:38.049Z,160
2019-01-23T11:57:38.291Z,160
2019-01-23T11:58:38.288Z,160
2019-01-23T11:59:38.273Z,160
2019-01-23T12:00:37.767Z,160
2019-01-23T12:01:38.224Z,160
2019-01-23T12:02:40.309Z,160
2019-01-23T12:03:37.755Z,165
2019-01-23T12:04:38.257Z,165
2019-01-23T12:05:38.218Z,165
2019-01-23T12:06:37.962Z,165
2019-01-23T12:07:38.195Z,165
2019-01-23T12:08:37.941Z,165
2019-01-23T12:09:37.923Z,165
2019-01-23T12:10:37.917Z,165
2019-01-23T12:11:37.672Z,160
2019-01-23T12:12:37.406Z,160
2019-01-23T12:13:37.898Z,160
2019-01-23T12:14:38.133Z,155
2019-01-23T12:15:43.326Z,155
2019-01-23T12:16:38.105Z,160
2019-01-23T12:17:38.107Z,160
2019-01-23T12:18:38.079Z,155
2019-01-23T12:19:37.598Z,150
2019-01-23T12:20:38.070Z,145
2019-01-23T12:21:38.057Z,145
2019-01-23T12:22:37.549Z,145
2019-01-23T12:23:38.031Z,145
2019-01-23T12:24:38.645Z,145
2019-01-23T12:25:37.272Z,140
2019-01-23T12:26:37.768Z,140
2019-01-23T12:27:37.735Z,135
2019-01-23T12:28:37.976Z,140
2019-01-23T12:29:38.013Z,130
2019-01-23T12:30:37.712Z,130
2019-01-23T12:31:44.201Z,130
2019-01-23T12:32:37.442Z,130
2019-01-23T12:33:37.699Z,130
2019-01-23T12:34:37.438Z,130
2019-01-23T12:35:37.650Z,130
2019-01-23T12:36:37.901Z,135
2019-01-23T12:37:37.647Z,135
2019-01-23T12:38:37.859Z,135
2019-01-23T12:39:37.619Z,140
2019-01-23T12:40:37.875Z,135
2019-01-23T12:41:37.849Z,135
2019-01-23T12:42:37.573Z,140
2019-01-23T12:43:37.817Z,140
2019-01-23T12:44:38.118Z,140
2019-01-23T12:45:37.779Z,135
2019-01-23T12:46:37.799Z,135
2019-01-23T12:47:37.808Z,135
2019-01-23T12:48:37.770Z,130
2019-01-23T12:49:37.495Z,130
2019-01-23T12:50:37.505Z,130
2019-01-23T12:51:37.708Z,130
2019-01-23T12:52:37.437Z,130
2019-01-23T12:53:37.703Z,130
2019-01-23T12:54:37.164Z,125
2019-01-23T12:55:37.616Z,125
2019-01-23T12:56:37.148Z,125
2019-01-23T12:57:37.146Z,125
2019-01-23T12:58:37.373Z,125
2019-01-23T12:59:37.398Z,125
2019-01-23T13:00:37.106Z,120
2019-01-23T13:01:44.127Z,120
2019-01-23T13:02:36.879Z,120
2019-01-23T13:03:37.618Z,115
2019-01-23T13:04:37.051Z,115
2019-01-23T13:05:37.301Z,115
2019-01-23T13:06:37.519Z,115
2019-01-23T13:07:40.668Z,110
2019-01-23T13:08:37.239Z,110
2019-01-23T13:09:37.484Z,110
2019-01-23T13:10:37.528Z,105
2019-01-23T13:11:36.720Z,110
2019-01-23T13:12:37.449Z,110
2019-01-23T13:13:37.475Z,110
2019-01-23T13:14:37.215Z,110
2019-01-23T13:15:36.692Z,110
2019-01-23T13:16:37.422Z,110
2019-01-23T13:17:37.901Z,105
2019-01-23T13:18:36.668Z,105
2019-01-23T13:19:37.768Z,105
2019-01-23T13:20:37.134Z,105
2019-01-23T13:21:37.098Z,105
2019-01-23T13:22:38.486Z,105
2019-01-23T13:23:36.596Z,105
2019-01-23T13:24:37.105Z,100
2019-01-23T13:25:38.748Z,100
2019-01-23T13:26:37.061Z,95
2019-01-23T13:27:37.064Z,95
2019-01-23T13:28:36.352Z,90
2019-01-23T13:29:37.014Z,90
2019-01-23T13:30:36.556Z,90
2019-01-23T13:31:36.786Z,85
2019-01-23T13:32:36.990Z,90
2019-01-23T13:33:37.009Z,80
2019-01-23T13:34:36.707Z,80
2019-01-23T13:35:37.194Z,80
2019-01-23T13:36:36.706Z,80
2019-01-23T13:37:36.944Z,85
2019-01-23T13:38:36.414Z,90
2019-01-23T13:39:36.435Z,95
2019-01-23T13:40:36.994Z,95
2019-01-23T13:41:36.648Z,95
2019-01-23T13:42:36.876Z,95
2019-01-23T13:43:36.617Z,100
2019-01-23T13:44:36.863Z,100
2019-01-23T13:45:36.862Z,100
2019-01-23T13:46:36.571Z,100
2019-01-23T13:47:36.579Z,105
2019-01-23T13:48:36.051Z,100
2019-01-23T13:49:36.788Z,100
2019-01-23T13:50:36.259Z,105
2019-01-23T13:51:37.031Z,105
2019-01-23T13:52:36.493Z,105
2019-01-23T13:53:36.745Z,110
2019-01-23T13:54:36.728Z,110
2019-01-23T13:55:37.466Z,110
2019-01-23T13:56:36.937Z,110
2019-01-23T13:57:36.219Z,110
2019-01-23T13:58:41.701Z,110
2019-01-23T13:59:36.153Z,110
2019-01-23T14:00:36.661Z,115
2019-01-23T14:01:36.376Z,115
2019-01-23T14:02:36.625Z,115
2019-01-23T14:03:36.619Z,110
2019-01-23T14:04:36.608Z,110
2019-01-23T14:05:36.339Z,105
2019-01-23T14:06:36.561Z,105
2019-01-23T14:07:36.320Z,100
2019-01-23T14:08:37.570Z,95
2019-01-23T14:09:36.552Z,95
2019-01-23T14:10:36.549Z,90
2019-01-23T14:11:36.342Z,85
2019-01-23T14:12:36.517Z,80
2019-01-23T14:13:36.258Z,80
2019-01-23T14:14:36.478Z,75
2019-01-23T14:15:36.004Z,75
2019-01-23T14:16:36.212Z,75
2019-01-23T14:17:36.222Z,75
2019-01-23T14:18:36.203Z,75
2019-01-23T14:19:36.696Z,75